Terminal Aerodrome Forecast
Issued by NWS

Home | Current Version | Previous Version | Text Only | Print | Product List | Glossary On
Versions: 1 2 3 4 5 6 7 8 9 10 11 12 13 14
000
FTUS42 TJSJ 040539
TAFJBQ
TAF
TJBQ 040539Z 0406/0506 10009KT P6SM SCT025 SCT050
     FM041330 08020G28KT P6SM SCT025 SCT040
     FM042300 10013KT P6SM FEW025
     FM050400 10010KT P6SM SKC
      AMD NOT SKED TIL 041100=

USA.gov is the U.S. government's official web portal to all federal, state and local government web resources and services.